createdAt,value
2022-09-23T00:01:22.625Z,89.55
2022-09-23T00:03:50.252Z,89.49
2022-09-23T00:06:24.684Z,89.36
2022-09-23T00:08:52.547Z,89.41
2022-09-23T00:11:26.827Z,89.66
2022-09-23T00:13:58.578Z,89.66
2022-09-23T00:16:30.941Z,89.80
2022-09-23T00:18:58.685Z,90.06
2022-09-23T00:21:26.631Z,90.45
2022-09-23T00:23:54.115Z,90.85
2022-09-23T00:26:23.382Z,91.03
2022-09-23T00:28:51.797Z,91.34
2022-09-23T00:31:23.449Z,91.37
2022-09-23T00:34:01.743Z,91.41
2022-09-23T00:36:32.152Z,91.22
2022-09-23T00:39:00.093Z,91.19
2022-09-23T00:41:28.067Z,91.11
2022-09-23T00:43:59.268Z,91.16
2022-09-23T00:46:35.532Z,91.27
2022-09-23T00:49:14.444Z,91.36
2022-09-23T00:51:58.510Z,91.25
2022-09-23T00:54:27.696Z,91.35
2022-09-23T00:56:57.608Z,91.24
2022-09-23T00:59:26.188Z,91.08
2022-09-23T01:01:57.600Z,90.95
2022-09-23T01:04:28.712Z,90.92
2022-09-23T01:06:56.204Z,91.02
2022-09-23T01:09:25.320Z,91.05
2022-09-23T01:12:12.742Z,91.13
2022-09-23T01:14:48.427Z,91.35
2022-09-23T01:17:37.397Z,91.43
2022-09-23T01:21:17.636Z,91.60
2022-09-23T01:24:08.927Z,91.65
2022-09-23T01:27:01.619Z,91.82
2022-09-23T01:29:46.932Z,91.86
2022-09-23T01:32:17.445Z,91.68
2022-09-23T01:35:18.275Z,91.53
2022-09-23T01:38:16.841Z,91.61
2022-09-23T01:41:09.904Z,91.72
2022-09-23T01:43:48.858Z,91.67
2022-09-23T01:46:54.342Z,91.85
2022-09-23T01:49:53.427Z,91.85
2022-09-23T01:52:32.859Z,91.83
2022-09-23T01:55:27.976Z,91.65
2022-09-23T01:58:12.151Z,91.73
2022-09-23T02:00:53.260Z,91.76
2022-09-23T02:03:55.286Z,91.89
2022-09-23T02:06:35.102Z,91.89
2022-09-23T02:09:14.270Z,91.87
2022-09-23T02:11:46.405Z,91.84
2022-09-23T02:14:30.698Z,91.90
2022-09-23T02:17:13.055Z,91.90
2022-09-23T02:19:53.396Z,92.04
2022-09-23T02:22:52.007Z,92.20
2022-09-23T02:25:25.976Z,92.40
2022-09-23T02:28:19.031Z,92.54
2022-09-23T02:31:04.964Z,92.46
2022-09-23T02:33:44.206Z,92.40
2022-09-23T02:36:56.123Z,92.34
2022-09-23T02:39:37.211Z,92.28
2022-09-23T02:42:15.210Z,92.36
2022-09-23T02:44:42.741Z,92.29
2022-09-23T02:47:10.607Z,92.40
2022-09-23T02:49:38.182Z,92.35
2022-09-23T02:52:07.619Z,92.24
2022-09-23T02:54:36.791Z,92.26
2022-09-23T02:57:08.269Z,92.25
2022-09-23T02:59:37.127Z,92.36
2022-09-23T03:02:26.884Z,92.41
2022-09-23T03:05:09.367Z,92.48
2022-09-23T03:08:02.881Z,92.48
2022-09-23T03:10:43.859Z,92.46
2022-09-23T03:13:35.200Z,92.40
2022-09-23T03:16:44.535Z,92.19
2022-09-23T03:19:42.272Z,92.16
2022-09-23T03:22:21.498Z,92.31
2022-09-23T03:24:54.010Z,92.38
2022-09-23T03:27:29.980Z,92.33
2022-09-23T03:29:58.757Z,92.24
2022-09-23T03:32:29.193Z,92.17
2022-09-23T03:35:01.130Z,92.11
2022-09-23T03:37:44.779Z,91.99
2022-09-23T03:40:17.688Z,92.05
2022-09-23T03:42:48.864Z,91.96
2022-09-23T03:45:22.669Z,91.86
2022-09-23T03:47:50.182Z,91.70
2022-09-23T03:50:17.951Z,91.67
2022-09-23T03:52:46.391Z,91.81
2022-09-23T03:55:13.986Z,91.83
2022-09-23T03:57:41.547Z,91.84
2022-09-23T04:00:10.338Z,91.93
2022-09-23T04:02:41.360Z,91.88
2022-09-23T04:05:13.343Z,91.77
2022-09-23T04:07:41.342Z,91.69
2022-09-23T04:10:10.007Z,91.62
2022-09-23T04:12:38.294Z,91.63
2022-09-23T04:15:06.739Z,91.53
2022-09-23T04:17:34.275Z,91.52
2022-09-23T04:20:02.293Z,91.72
2022-09-23T04:22:29.727Z,91.74
2022-09-23T04:24:57.364Z,91.69
2022-09-23T04:27:24.821Z,91.61
2022-09-23T04:29:52.309Z,91.49
2022-09-23T04:32:19.760Z,91.49
2022-09-23T04:34:47.185Z,91.45
2022-09-23T04:37:14.696Z,91.49
2022-09-23T04:39:43.279Z,91.63
2022-09-23T04:42:10.862Z,91.62
2022-09-23T04:44:38.929Z,91.63
2022-09-23T04:47:06.713Z,91.73
2022-09-23T04:49:34.318Z,91.46
2022-09-23T04:52:02.796Z,91.50
2022-09-23T04:54:30.142Z,91.42
2022-09-23T04:56:57.680Z,91.35
2022-09-23T04:59:25.181Z,91.19
2022-09-23T05:01:54.398Z,91.03
2022-09-23T05:04:22.029Z,90.85
2022-09-23T05:06:49.488Z,90.58
2022-09-23T05:09:17.730Z,90.26
2022-09-23T05:11:45.997Z,90.17
2022-09-23T05:14:13.797Z,89.73
2022-09-23T05:16:41.589Z,89.59
2022-09-23T05:19:09.182Z,89.50
2022-09-23T05:21:37.796Z,89.07
2022-09-23T05:24:05.617Z,88.33
2022-09-23T05:26:33.457Z,88.32
2022-09-23T05:29:01.093Z,87.96
2022-09-23T05:31:30.711Z,87.52
2022-09-23T05:34:01.908Z,87.39
2022-09-23T05:36:37.919Z,87.13
2022-09-23T05:39:08.657Z,86.13
2022-09-23T05:41:37.038Z,85.55
2022-09-23T05:44:04.997Z,84.56
2022-09-23T05:46:33.326Z,83.88
2022-09-23T05:49:03.453Z,82.14
2022-09-23T05:51:34.723Z,82.26
2022-09-23T05:54:04.360Z,79.92
2022-09-23T05:56:33.814Z,79.75
2022-09-23T05:59:03.248Z,79.35
2022-09-23T06:01:35.640Z,77.78
2022-09-23T06:04:06.004Z,76.36
2022-09-23T06:06:42.696Z,75.46
2022-09-23T06:09:13.889Z,75.23
2022-09-23T06:11:42.540Z,74.41
2022-09-23T06:14:14.804Z,74.34
2022-09-23T06:16:43.146Z,73.11
2022-09-23T06:19:11.118Z,72.11
2022-09-23T06:21:40.927Z,70.35
2022-09-23T06:24:11.227Z,70.34
2022-09-23T06:26:41.136Z,69.76
2022-09-23T06:29:14.476Z,69.36
2022-09-23T06:31:43.354Z,66.67
2022-09-23T06:34:14.348Z,68.05
2022-09-23T06:36:45.399Z,66.51
2022-09-23T06:39:16.552Z,65.40
2022-09-23T06:41:45.264Z,64.21
2022-09-23T06:44:15.193Z,67.44
2022-09-23T06:46:43.245Z,65.54
2022-09-23T06:49:13.320Z,65.06
2022-09-23T06:51:41.514Z,62.98
2022-09-23T06:54:09.444Z,62.68
2022-09-23T06:56:39.447Z,60.58
2022-09-23T06:59:13.012Z,59.93
2022-09-23T07:01:40.734Z,58.20
2022-09-23T07:04:10.610Z,57.67
2022-09-23T07:06:38.158Z,56.84
2022-09-23T07:09:07.894Z,55.55
2022-09-23T07:11:35.345Z,58.33
2022-09-23T07:14:02.914Z,56.82
2022-09-23T07:16:31.638Z,53.63
2022-09-23T07:18:59.617Z,53.30
2022-09-23T07:21:27.847Z,56.56
2022-09-23T07:23:58.053Z,54.20
2022-09-23T07:26:26.296Z,53.43
2022-09-23T07:28:56.648Z,53.78
2022-09-23T07:31:37.831Z,54.90
2022-09-23T07:34:11.335Z,59.74
2022-09-23T07:36:40.685Z,56.45
2022-09-23T07:39:12.606Z,55.26
2022-09-23T07:41:41.745Z,54.46
2022-09-23T07:44:11.862Z,56.40
2022-09-23T07:46:40.065Z,55.77
2022-09-23T07:49:07.998Z,56.64
2022-09-23T07:51:38.834Z,54.35
2022-09-23T07:54:09.935Z,53.59
2022-09-23T07:56:38.779Z,51.34
2022-09-23T07:59:09.297Z,52.05
2022-09-23T08:01:41.501Z,53.76
2022-09-23T08:04:17.965Z,54.63
2022-09-23T08:06:59.224Z,53.16
2022-09-23T08:09:35.612Z,52.90
2022-09-23T08:12:03.581Z,53.16
2022-09-23T08:14:31.072Z,51.70
2022-09-23T08:16:58.532Z,51.31
2022-09-23T08:19:26.087Z,49.89
2022-09-23T08:21:54.459Z,47.82
2022-09-23T08:24:24.239Z,48.51
2022-09-23T08:26:53.363Z,51.82
2022-09-23T08:29:24.907Z,53.73
2022-09-23T08:31:53.792Z,54.79
2022-09-23T08:34:23.748Z,51.71
2022-09-23T08:36:52.409Z,51.72
2022-09-23T08:39:21.247Z,47.03
2022-09-23T08:42:07.140Z,49.56
2022-09-23T08:44:45.311Z,50.85
2022-09-23T08:47:12.665Z,51.92
2022-09-23T08:50:22.016Z,52.07
2022-09-23T08:52:55.958Z,54.59
2022-09-23T08:55:42.030Z,54.68
2022-09-23T08:58:53.545Z,56.32
2022-09-23T09:01:45.915Z,57.56
2022-09-23T09:04:19.225Z,57.61
2022-09-23T09:07:24.585Z,55.85
2022-09-23T09:10:24.933Z,50.84
2022-09-23T09:13:28.706Z,48.24
2022-09-23T09:16:42.138Z,49.05
2022-09-23T09:19:21.747Z,48.35
2022-09-23T09:21:55.513Z,55.44
2022-09-23T09:24:34.826Z,52.25
2022-09-23T09:27:12.527Z,54.77
2022-09-23T09:29:49.713Z,54.52
2022-09-23T09:32:46.269Z,56.05
2022-09-23T09:35:33.440Z,51.52
2022-09-23T09:38:01.825Z,46.74
2022-09-23T09:40:29.852Z,44.98
2022-09-23T09:42:57.748Z,46.17
2022-09-23T09:45:57.761Z,43.56
2022-09-23T09:48:40.071Z,45.58
2022-09-23T09:51:21.514Z,46.79
2022-09-23T09:53:53.053Z,48.87
2022-09-23T09:56:42.072Z,46.61
2022-09-23T09:59:16.531Z,41.01
2022-09-23T10:01:46.194Z,41.49
2022-09-23T10:04:24.908Z,40.12
2022-09-23T10:07:13.093Z,37.46
2022-09-23T10:09:50.281Z,40.35
2022-09-23T10:12:24.512Z,39.33
2022-09-23T10:14:57.238Z,40.09
2022-09-23T10:17:34.344Z,43.09
2022-09-23T10:20:09.059Z,45.65
2022-09-23T10:22:42.379Z,48.41
2022-09-23T10:25:20.734Z,49.62
2022-09-23T10:27:48.272Z,50.15
2022-09-23T10:30:23.092Z,49.78
2022-09-23T10:32:54.950Z,50.72
2022-09-23T10:35:25.481Z,49.39
2022-09-23T10:37:56.155Z,45.61
2022-09-23T10:40:47.908Z,43.60
2022-09-23T10:44:02.873Z,43.61
2022-09-23T10:46:48.527Z,38.72
2022-09-23T10:49:57.134Z,40.38
2022-09-23T10:52:36.428Z,40.72
2022-09-23T10:55:56.725Z,41.00
2022-09-23T10:59:02.363Z,44.12
2022-09-23T11:02:19.160Z,44.64
2022-09-23T11:05:06.482Z,44.50
2022-09-23T11:07:44.880Z,45.34
2022-09-23T11:10:44.975Z,46.26
2022-09-23T11:13:54.613Z,46.39
2022-09-23T11:16:39.113Z,45.46
2022-09-23T11:19:44.724Z,47.27
2022-09-23T11:22:37.963Z,48.05
2022-09-23T11:25:30.297Z,41.22
2022-09-23T11:29:02.427Z,40.17
2022-09-23T11:31:59.730Z,39.46
2022-09-23T11:34:27.193Z,37.33
2022-09-23T11:37:06.867Z,36.07
2022-09-23T11:39:51.339Z,35.75
2022-09-23T11:42:31.730Z,38.28
2022-09-23T11:45:08.593Z,36.61
2022-09-23T11:47:48.740Z,35.96
2022-09-23T11:50:25.829Z,35.93
2022-09-23T11:53:40.751Z,38.98
2022-09-23T11:56:40.071Z,42.40
2022-09-23T11:59:40.531Z,43.20
2022-09-23T12:02:30.235Z,43.98
2022-09-23T12:05:13.987Z,43.09
2022-09-23T12:08:17.879Z,45.14
2022-09-23T12:11:25.683Z,44.84
2022-09-23T12:14:10.958Z,39.77
2022-09-23T12:17:22.151Z,40.24
2022-09-23T12:20:33.993Z,39.70
2022-09-23T12:23:47.444Z,41.29
2022-09-23T12:26:20.262Z,41.26
2022-09-23T12:28:52.988Z,41.87
2022-09-23T12:31:30.669Z,42.36
2022-09-23T12:34:01.051Z,43.31
2022-09-23T12:36:36.316Z,43.22
2022-09-23T12:39:13.962Z,43.35
2022-09-23T12:41:46.308Z,43.88
2022-09-23T12:44:31.847Z,41.23
2022-09-23T12:47:25.443Z,42.87
2022-09-23T12:49:54.013Z,41.90
2022-09-23T12:52:33.480Z,42.75
2022-09-23T12:55:23.331Z,43.74
2022-09-23T12:57:50.865Z,41.58
2022-09-23T13:00:26.859Z,41.76
2022-09-23T13:03:18.602Z,44.72
2022-09-23T13:06:35.734Z,43.49
2022-09-23T13:09:03.530Z,44.13
2022-09-23T13:11:33.203Z,43.47
2022-09-23T13:14:05.338Z,42.20
2022-09-23T13:16:45.935Z,42.37
2022-09-23T13:19:28.448Z,43.89
2022-09-23T13:22:11.063Z,48.34
2022-09-23T13:24:52.201Z,49.32
2022-09-23T13:27:33.867Z,48.62
2022-09-23T13:30:25.116Z,47.94
2022-09-23T13:33:24.118Z,48.42
2022-09-23T13:35:57.988Z,49.62
2022-09-23T13:38:31.742Z,48.34
2022-09-23T13:41:15.435Z,48.46
2022-09-23T13:43:50.948Z,49.00
2022-09-23T13:46:40.006Z,48.68
2022-09-23T13:49:24.406Z,48.24
2022-09-23T13:51:54.156Z,47.51
2022-09-23T13:54:46.515Z,46.98
2022-09-23T13:57:33.848Z,48.09
2022-09-23T14:00:19.419Z,49.72
2022-09-23T14:02:47.342Z,50.35
2022-09-23T14:05:27.612Z,47.70
2022-09-23T14:07:57.016Z,46.88
2022-09-23T14:10:27.660Z,48.60
2022-09-23T14:12:56.568Z,45.45
2022-09-23T14:15:24.386Z,46.79
2022-09-23T14:18:06.279Z,47.26
2022-09-23T14:20:50.242Z,46.02
2022-09-23T14:23:17.787Z,47.07
2022-09-23T14:25:47.033Z,47.45
2022-09-23T14:28:23.924Z,47.02
2022-09-23T14:30:58.407Z,49.63
2022-09-23T14:33:32.238Z,47.97
2022-09-23T14:36:31.050Z,48.54
2022-09-23T14:39:09.074Z,46.63
2022-09-23T14:41:42.637Z,46.44
2022-09-23T14:44:25.080Z,47.87
2022-09-23T14:46:59.839Z,47.16
2022-09-23T14:49:27.958Z,47.96
2022-09-23T14:52:05.709Z,46.14
2022-09-23T14:54:41.361Z,46.49
2022-09-23T14:57:24.093Z,47.52
2022-09-23T14:59:59.705Z,48.51
2022-09-23T15:02:40.208Z,48.61
2022-09-23T15:05:10.350Z,48.62
2022-09-23T15:07:38.880Z,49.19
2022-09-23T15:10:37.515Z,49.83
2022-09-23T15:13:15.427Z,47.36
2022-09-23T15:15:44.258Z,49.20
2022-09-23T15:18:34.707Z,48.33
2022-09-23T15:21:13.364Z,48.34
2022-09-23T15:23:50.066Z,48.59
2022-09-23T15:26:40.623Z,50.37
2022-09-23T15:29:10.092Z,50.13
2022-09-23T15:31:37.712Z,49.17
2022-09-23T15:34:05.656Z,48.68
2022-09-23T15:36:33.319Z,50.22
2022-09-23T15:39:08.612Z,50.37
2022-09-23T15:41:36.123Z,49.78
2022-09-23T15:44:14.062Z,51.06
2022-09-23T15:46:51.854Z,51.58
2022-09-23T15:49:38.958Z,52.21
2022-09-23T15:52:09.711Z,53.14
2022-09-23T15:54:37.824Z,54.10
2022-09-23T15:57:05.427Z,54.48
2022-09-23T15:59:33.035Z,54.91
2022-09-23T16:02:07.891Z,54.48
2022-09-23T16:04:36.036Z,54.88
2022-09-23T16:07:04.969Z,55.89
2022-09-23T16:09:32.427Z,56.51
2022-09-23T16:12:02.123Z,57.05
2022-09-23T16:14:29.537Z,58.51
2022-09-23T16:16:57.591Z,58.90
2022-09-23T16:19:25.708Z,59.34
2022-09-23T16:21:53.232Z,59.27
2022-09-23T16:24:27.348Z,60.39
2022-09-23T16:26:59.998Z,61.99
2022-09-23T16:29:27.662Z,62.87
2022-09-23T16:31:55.720Z,63.49
2022-09-23T16:34:23.281Z,63.65
2022-09-23T16:36:50.739Z,64.17
2022-09-23T16:39:20.554Z,64.12
2022-09-23T16:41:48.036Z,64.29
2022-09-23T16:44:16.347Z,64.90
2022-09-23T16:46:43.646Z,65.76
2022-09-23T16:49:14.198Z,65.91
2022-09-23T16:51:42.025Z,66.04
2022-09-23T16:54:12.258Z,65.74
2022-09-23T16:56:46.374Z,65.53
2022-09-23T16:59:16.067Z,65.54
2022-09-23T17:02:02.811Z,65.72
2022-09-23T17:04:30.414Z,65.73
2022-09-23T17:06:58.075Z,66.20
2022-09-23T17:09:28.516Z,68.48
2022-09-23T17:12:27.789Z,69.04
2022-09-23T17:14:55.561Z,70.05
2022-09-23T17:17:23.075Z,70.74
2022-09-23T17:19:50.502Z,70.59
2022-09-23T17:22:17.988Z,70.22
2022-09-23T17:24:45.562Z,70.12
2022-09-23T17:27:13.401Z,70.36
2022-09-23T17:29:40.863Z,70.18
2022-09-23T17:32:09.480Z,70.37
2022-09-23T17:34:36.933Z,70.21
2022-09-23T17:37:04.476Z,70.49
2022-09-23T17:39:31.937Z,70.84
2022-09-23T17:41:59.457Z,70.48
2022-09-23T17:44:26.969Z,70.48
2022-09-23T17:46:54.448Z,70.59
2022-09-23T17:49:24.187Z,70.24
2022-09-23T17:51:51.699Z,70.13
2022-09-23T17:54:19.236Z,70.30
2022-09-23T17:56:46.787Z,70.73
2022-09-23T17:59:14.291Z,71.17
2022-09-23T18:01:42.088Z,72.17
2022-09-23T18:04:09.679Z,72.04
2022-09-23T18:06:38.079Z,72.31
2022-09-23T18:09:08.494Z,72.65
2022-09-23T18:11:43.060Z,72.93
2022-09-23T18:14:22.787Z,72.92
2022-09-23T18:16:53.676Z,73.49
2022-09-23T18:19:24.376Z,74.15
2022-09-23T18:21:57.217Z,74.68
2022-09-23T18:24:32.185Z,74.93
2022-09-23T18:27:01.650Z,74.82
2022-09-23T18:29:29.424Z,75.23
2022-09-23T18:31:57.029Z,75.59
2022-09-23T18:34:25.306Z,75.95
2022-09-23T18:36:55.958Z,76.13
2022-09-23T18:39:23.502Z,76.49
2022-09-23T18:41:51.070Z,77.08
2022-09-23T18:44:19.912Z,77.12
2022-09-23T18:46:47.381Z,77.72
2022-09-23T18:49:33.565Z,77.88
2022-09-23T18:52:01.375Z,78.08
2022-09-23T18:54:29.371Z,78.41
2022-09-23T18:56:59.090Z,78.73
2022-09-23T18:59:33.458Z,78.99
2022-09-23T19:02:01.192Z,78.90
2022-09-23T19:04:29.083Z,79.15
2022-09-23T19:06:57.897Z,79.14
2022-09-23T19:09:25.528Z,79.25
2022-09-23T19:11:53.795Z,79.34
2022-09-23T19:14:21.483Z,79.44
2022-09-23T19:16:49.600Z,79.75
2022-09-23T19:19:17.481Z,80.03
2022-09-23T19:21:45.190Z,80.02
2022-09-23T19:24:15.959Z,80.34
2022-09-23T19:26:44.498Z,80.53
2022-09-23T19:29:19.554Z,80.74
2022-09-23T19:31:48.730Z,81.06
2022-09-23T19:34:19.808Z,81.19
2022-09-23T19:36:47.821Z,81.22
2022-09-23T19:39:17.268Z,81.27
2022-09-23T19:41:46.090Z,81.33
2022-09-23T19:44:14.587Z,81.59
2022-09-23T19:46:45.205Z,81.53
2022-09-23T19:49:13.650Z,81.77
2022-09-23T19:51:41.343Z,81.96
2022-09-23T19:54:09.164Z,82.11
2022-09-23T19:56:37.624Z,82.08
2022-09-23T19:59:09.241Z,82.15
2022-09-23T20:01:37.343Z,82.10
2022-09-23T20:04:05.709Z,82.29
2022-09-23T20:06:38.531Z,82.50
2022-09-23T20:09:06.224Z,82.50
2022-09-23T20:11:34.574Z,82.50
2022-09-23T20:14:04.821Z,82.40
2022-09-23T20:16:35.917Z,82.47
2022-09-23T20:19:22.768Z,82.31
2022-09-23T20:22:10.211Z,82.28
2022-09-23T20:24:37.714Z,82.24
2022-09-23T20:27:11.115Z,82.30
2022-09-23T20:29:38.654Z,82.26
2022-09-23T20:32:06.140Z,82.30
2022-09-23T20:34:33.660Z,82.21
2022-09-23T20:37:01.256Z,82.46
2022-09-23T20:39:28.755Z,82.24
2022-09-23T20:41:56.283Z,82.39
2022-09-23T20:44:23.798Z,82.31
2022-09-23T20:46:51.846Z,82.19
2022-09-23T20:49:20.781Z,82.28
2022-09-23T20:51:49.132Z,82.47
2022-09-23T20:54:20.380Z,82.51
2022-09-23T20:56:48.091Z,82.63
2022-09-23T20:59:17.701Z,82.65
2022-09-23T21:01:47.571Z,82.81
2022-09-23T21:04:15.714Z,82.67
2022-09-23T21:06:43.267Z,82.67
2022-09-23T21:09:10.699Z,82.78
2022-09-23T21:11:38.180Z,82.73
2022-09-23T21:14:06.025Z,82.85
2022-09-23T21:16:33.865Z,82.96
2022-09-23T21:19:03.186Z,83.02
2022-09-23T21:21:30.685Z,83.23
2022-09-23T21:24:24.475Z,83.18
2022-09-23T21:26:48.962Z,83.11
2022-09-23T21:29:17.029Z,83.25
2022-09-23T21:31:44.983Z,83.10
2022-09-23T21:34:14.475Z,83.22
2022-09-23T21:36:43.346Z,83.20
2022-09-23T21:39:12.137Z,83.27
2022-09-23T21:41:40.104Z,83.35
2022-09-23T21:44:08.636Z,83.17
2022-09-23T21:46:36.854Z,83.20
2022-09-23T21:49:04.981Z,83.26
2022-09-23T21:51:41.130Z,83.33
2022-09-23T21:54:16.949Z,83.32
2022-09-23T21:56:44.914Z,83.33
2022-09-23T21:59:12.943Z,83.15
2022-09-23T22:01:45.006Z,83.23
2022-09-23T22:04:18.828Z,83.36
2022-09-23T22:06:48.781Z,83.32
2022-09-23T22:09:20.735Z,83.29
2022-09-23T22:12:09.692Z,83.48
2022-09-23T22:14:38.884Z,83.34
2022-09-23T22:17:10.347Z,83.30
2022-09-23T22:19:42.999Z,83.27
2022-09-23T22:22:18.123Z,83.16
2022-09-23T22:24:47.228Z,83.08
2022-09-23T22:27:19.757Z,83.04
2022-09-23T22:30:06.315Z,83.02
2022-09-23T22:32:52.918Z,83.12
2022-09-23T22:35:22.503Z,83.06
2022-09-23T22:37:50.483Z,83.19
2022-09-23T22:40:18.146Z,83.17
2022-09-23T22:42:45.822Z,83.18
2022-09-23T22:45:13.724Z,83.10
2022-09-23T22:47:44.968Z,83.14
2022-09-23T22:50:14.677Z,83.17
2022-09-23T22:52:42.728Z,83.50
2022-09-23T22:55:11.294Z,83.60
2022-09-23T22:57:38.826Z,83.61
2022-09-23T23:00:07.797Z,83.71
2022-09-23T23:02:35.278Z,83.88
2022-09-23T23:05:02.989Z,83.93
2022-09-23T23:07:30.413Z,83.98
2022-09-23T23:09:58.152Z,83.89
2022-09-23T23:12:25.684Z,83.74
2022-09-23T23:14:53.322Z,83.85
2022-09-23T23:17:21.785Z,84.03
2022-09-23T23:19:50.568Z,83.93
2022-09-23T23:22:18.256Z,83.81
2022-09-23T23:24:45.795Z,83.81
2022-09-23T23:27:13.276Z,83.87
2022-09-23T23:29:40.687Z,83.78
2022-09-23T23:32:09.734Z,83.95
2022-09-23T23:34:37.265Z,84.09
2022-09-23T23:37:04.760Z,84.25
2022-09-23T23:39:33.928Z,84.30
2022-09-23T23:42:01.395Z,84.53
2022-09-23T23:44:31.150Z,84.64
2022-09-23T23:46:58.643Z,84.66
2022-09-23T23:49:26.154Z,84.73
2022-09-23T23:51:53.701Z,84.64
2022-09-23T23:54:21.228Z,84.55
2022-09-23T23:56:48.935Z,84.52
2022-09-23T23:59:16.346Z,84.51
